sensor_id;sensor_type;location;lat;lon;timestamp;pressure;altitude;pressure_sealevel;temperature;humidity
22018;BME280;11173;51.050;7.108;2022-09-01T00:03:20;99917.53;;;16.06;51.13
22018;BME280;11173;51.050;7.108;2022-09-01T00:08:23;99906.28;;;16.06;51.32
22018;BME280;11173;51.050;7.108;2022-09-01T00:13:24;99911.41;;;16.21;51.24
22018;BME280;11173;51.050;7.108;2022-09-01T00:18:25;99917.69;;;16.25;50.72
22018;BME280;11173;51.050;7.108;2022-09-01T00:23:26;99917.84;;;16.21;51.16
22018;BME280;11173;51.050;7.108;2022-09-01T00:28:27;99906.06;;;16.14;50.86
22018;BME280;11173;51.050;7.108;2022-09-01T00:33:27;99907.59;;;16.15;50.52
22018;BME280;11173;51.050;7.108;2022-09-01T00:38:28;99925.94;;;16.19;50.89
22018;BME280;11173;51.050;7.108;2022-09-01T00:43:47;99918.63;;;16.22;50.83
22018;BME280;11173;51.050;7.108;2022-09-01T00:48:52;99915.38;;;16.23;50.70
22018;BME280;11173;51.050;7.108;2022-09-01T00:53:56;99902.66;;;16.19;50.69
22018;BME280;11173;51.050;7.108;2022-09-01T00:58:58;99904.13;;;16.23;50.20
22018;BME280;11173;51.050;7.108;2022-09-01T01:03:59;99905.34;;;16.22;50.64
22018;BME280;11173;51.050;7.108;2022-09-01T01:09:01;99909.84;;;16.20;50.39
22018;BME280;11173;51.050;7.108;2022-09-01T01:14:05;99899.50;;;16.17;50.21
22018;BME280;11173;51.050;7.108;2022-09-01T01:19:57;99906.06;;;16.14;50.83
22018;BME280;11173;51.050;7.108;2022-09-01T01:24:56;99912.44;;;16.14;50.51
22018;BME280;11173;51.050;7.108;2022-09-01T01:30:00;99916.03;;;16.15;50.65
22018;BME280;11173;51.050;7.108;2022-09-01T01:35:01;99906.94;;;16.10;50.96
22018;BME280;11173;51.050;7.108;2022-09-01T01:40:05;99917.75;;;16.12;50.44
22018;BME280;11173;51.050;7.108;2022-09-01T01:45:07;99908.66;;;16.08;50.87
22018;BME280;11173;51.050;7.108;2022-09-01T01:50:12;99914.16;;;16.12;50.46
22018;BME280;11173;51.050;7.108;2022-09-01T01:55:14;99916.47;;;16.13;50.98
22018;BME280;11173;51.050;7.108;2022-09-01T02:00:21;99918.53;;;16.13;50.52
22018;BME280;11173;51.050;7.108;2022-09-01T02:05:27;99910.41;;;16.15;50.21
22018;BME280;11173;51.050;7.108;2022-09-01T02:10:32;99917.38;;;16.23;50.05
22018;BME280;11173;51.050;7.108;2022-09-01T02:15:37;99914.56;;;16.23;49.57
22018;BME280;11173;51.050;7.108;2022-09-01T02:20:46;99924.69;;;16.20;49.47
22018;BME280;11173;51.050;7.108;2022-09-01T02:25:50;99920.44;;;16.16;49.51
22018;BME280;11173;51.050;7.108;2022-09-01T02:30:53;99923.03;;;16.10;49.99
22018;BME280;11173;51.050;7.108;2022-09-01T02:35:56;99914.38;;;16.04;49.61
22018;BME280;11173;51.050;7.108;2022-09-01T02:40:58;99910.91;;;16.00;50.22
22018;BME280;11173;51.050;7.108;2022-09-01T02:46:01;99910.25;;;15.96;50.01
22018;BME280;11173;51.050;7.108;2022-09-01T02:51:09;99913.94;;;15.93;50.37
22018;BME280;11173;51.050;7.108;2022-09-01T02:56:11;99914.63;;;15.84;50.73
22018;BME280;11173;51.050;7.108;2022-09-01T03:01:29;99910.38;;;15.80;51.01
22018;BME280;11173;51.050;7.108;2022-09-01T03:06:32;99909.09;;;15.68;51.22
22018;BME280;11173;51.050;7.108;2022-09-01T03:11:35;99907.31;;;15.61;51.10
22018;BME280;11173;51.050;7.108;2022-09-01T03:16:36;99911.69;;;15.49;51.29
22018;BME280;11173;51.050;7.108;2022-09-01T03:21:40;99919.53;;;15.42;51.03
22018;BME280;11173;51.050;7.108;2022-09-01T03:26:42;99913.22;;;15.25;51.40
22018;BME280;11173;51.050;7.108;2022-09-01T03:31:43;99911.53;;;15.15;51.72
22018;BME280;11173;51.050;7.108;2022-09-01T03:36:44;99906.69;;;15.02;51.90
22018;BME280;11173;51.050;7.108;2022-09-01T03:41:49;99907.97;;;14.85;52.44
22018;BME280;11173;51.050;7.108;2022-09-01T03:46:49;99913.06;;;14.74;52.54
22018;BME280;11173;51.050;7.108;2022-09-01T03:51:50;99909.00;;;14.62;52.53
22018;BME280;11173;51.050;7.108;2022-09-01T03:56:55;99898.53;;;14.49;53.21
22018;BME280;11173;51.050;7.108;2022-09-01T04:01:58;99891.28;;;14.36;53.42
22018;BME280;11173;51.050;7.108;2022-09-01T04:06:59;99893.03;;;14.29;53.58
22018;BME280;11173;51.050;7.108;2022-09-01T04:12:00;99898.13;;;14.18;54.30
22018;BME280;11173;51.050;7.108;2022-09-01T04:17:00;99894.72;;;14.10;54.75
22018;BME280;11173;51.050;7.108;2022-09-01T04:22:19;99902.59;;;13.99;55.54
22018;BME280;11173;51.050;7.108;2022-09-01T04:27:28;99906.78;;;13.91;55.80
22018;BME280;11173;51.050;7.108;2022-09-01T04:32:28;99899.41;;;13.81;55.26
22018;BME280;11173;51.050;7.108;2022-09-01T04:37:30;99893.13;;;13.77;55.52
22018;BME280;11173;51.050;7.108;2022-09-01T04:42:30;99887.84;;;13.62;55.92
22018;BME280;11173;51.050;7.108;2022-09-01T04:47:31;99900.63;;;13.63;55.62
22018;BME280;11173;51.050;7.108;2022-09-01T04:52:33;99904.91;;;13.51;56.77
22018;BME280;11173;51.050;7.108;2022-09-01T04:57:33;99897.44;;;13.45;56.61
22018;BME280;11173;51.050;7.108;2022-09-01T05:02:34;99913.31;;;13.51;56.49
22018;BME280;11173;51.050;7.108;2022-09-01T05:07:34;99908.22;;;13.46;56.43
22018;BME280;11173;51.050;7.108;2022-09-01T05:12:36;99895.72;;;13.51;56.23
22018;BME280;11173;51.050;7.108;2022-09-01T05:17:39;99907.97;;;13.57;56.28
22018;BME280;11173;51.050;7.108;2022-09-01T05:22:40;99902.13;;;13.51;56.64
22018;BME280;11173;51.050;7.108;2022-09-01T05:27:42;99910.34;;;13.59;56.62
22018;BME280;11173;51.050;7.108;2022-09-01T05:32:48;99906.66;;;13.62;56.40
22018;BME280;11173;51.050;7.108;2022-09-01T05:37:50;99905.00;;;13.64;56.22
22018;BME280;11173;51.050;7.108;2022-09-01T05:42:50;99907.81;;;13.64;56.77
22018;BME280;11173;51.050;7.108;2022-09-01T05:47:53;99909.81;;;13.64;56.94
22018;BME280;11173;51.050;7.108;2022-09-01T05:52:54;99918.22;;;13.80;57.11
22018;BME280;11173;51.050;7.108;2022-09-01T05:57:57;99908.72;;;14.10;56.39
22018;BME280;11173;51.050;7.108;2022-09-01T06:02:58;99910.25;;;14.44;55.34
22018;BME280;11173;51.050;7.108;2022-09-01T06:07:58;99928.75;;;14.87;54.29
22018;BME280;11173;51.050;7.108;2022-09-01T06:12:58;99923.34;;;15.22;53.58
22018;BME280;11173;51.050;7.108;2022-09-01T06:18:01;99922.47;;;15.51;52.50
22018;BME280;11173;51.050;7.108;2022-09-01T06:23:02;99925.19;;;15.67;51.77
22018;BME280;11173;51.050;7.108;2022-09-01T06:28:02;99903.50;;;15.68;51.81
22018;BME280;11173;51.050;7.108;2022-09-01T06:33:05;99919.22;;;15.65;51.34
22018;BME280;11173;51.050;7.108;2022-09-01T06:38:11;99921.56;;;15.67;51.49
22018;BME280;11173;51.050;7.108;2022-09-01T06:43:12;99930.22;;;15.73;51.34
22018;BME280;11173;51.050;7.108;2022-09-01T06:48:13;99920.34;;;15.81;51.23
22018;BME280;11173;51.050;7.108;2022-09-01T06:53:15;99929.91;;;15.96;50.85
22018;BME280;11173;51.050;7.108;2022-09-01T06:58:19;99927.72;;;16.13;50.05
22018;BME280;11173;51.050;7.108;2022-09-01T07:03:19;99934.00;;;16.30;50.02
22018;BME280;11173;51.050;7.108;2022-09-01T07:08:21;99933.06;;;16.46;49.95
22018;BME280;11173;51.050;7.108;2022-09-01T07:13:22;99943.56;;;16.67;49.29
22018;BME280;11173;51.050;7.108;2022-09-01T07:18:26;99945.19;;;16.90;49.66
22018;BME280;11173;51.050;7.108;2022-09-01T07:23:26;99947.22;;;17.12;48.87
22018;BME280;11173;51.050;7.108;2022-09-01T07:28:29;99937.03;;;17.37;48.52
22018;BME280;11173;51.050;7.108;2022-09-01T07:33:31;99933.19;;;17.53;47.89
22018;BME280;11173;51.050;7.108;2022-09-01T07:38:32;99928.78;;;17.74;47.53
22018;BME280;11173;51.050;7.108;2022-09-01T07:43:33;99934.81;;;17.94;46.50
22018;BME280;11173;51.050;7.108;2022-09-01T07:48:33;99935.16;;;18.15;46.92
22018;BME280;11173;51.050;7.108;2022-09-01T07:53:34;99937.56;;;18.35;47.05
22018;BME280;11173;51.050;7.108;2022-09-01T07:58:37;99933.38;;;18.48;45.82
22018;BME280;11173;51.050;7.108;2022-09-01T08:03:39;99940.59;;;18.59;43.91
22018;BME280;11173;51.050;7.108;2022-09-01T08:08:40;99945.94;;;18.66;42.96
22018;BME280;11173;51.050;7.108;2022-09-01T08:13:40;99946.22;;;18.86;43.54
22018;BME280;11173;51.050;7.108;2022-09-01T08:18:41;99943.41;;;18.96;42.12
22018;BME280;11173;51.050;7.108;2022-09-01T08:23:42;99941.38;;;19.05;40.50
22018;BME280;11173;51.050;7.108;2022-09-01T08:28:42;99941.22;;;19.09;40.76
22018;BME280;11173;51.050;7.108;2022-09-01T08:33:44;99946.50;;;19.16;40.75
22018;BME280;11173;51.050;7.108;2022-09-01T08:38:46;99935.84;;;19.20;41.09
22018;BME280;11173;51.050;7.108;2022-09-01T08:44:33;99941.97;;;19.28;38.83
22018;BME280;11173;51.050;7.108;2022-09-01T08:49:40;99938.66;;;19.39;39.72
22018;BME280;11173;51.050;7.108;2022-09-01T08:54:48;99937.22;;;19.43;40.11
22018;BME280;11173;51.050;7.108;2022-09-01T08:59:51;99926.38;;;19.51;39.28
22018;BME280;11173;51.050;7.108;2022-09-01T09:10:18;99926.06;;;19.82;38.45
22018;BME280;11173;51.050;7.108;2022-09-01T09:15:51;99921.97;;;19.93;36.57
22018;BME280;11173;51.050;7.108;2022-09-01T09:20:54;99921.03;;;19.86;36.87
22018;BME280;11173;51.050;7.108;2022-09-01T09:25:55;99919.88;;;20.02;37.72
22018;BME280;11173;51.050;7.108;2022-09-01T09:31:32;99912.63;;;20.11;34.73
22018;BME280;11173;51.050;7.108;2022-09-01T09:36:35;99920.09;;;20.23;36.92
22018;BME280;11173;51.050;7.108;2022-09-01T09:41:37;99902.84;;;20.36;37.46
22018;BME280;11173;51.050;7.108;2022-09-01T09:46:41;99880.69;;;20.34;37.86
22018;BME280;11173;51.050;7.108;2022-09-01T09:51:44;99897.94;;;20.60;37.71
22018;BME280;11173;51.050;7.108;2022-09-01T09:57:00;99898.72;;;20.85;38.77
22018;BME280;11173;51.050;7.108;2022-09-01T10:07:29;99887.00;;;21.37;34.47
22018;BME280;11173;51.050;7.108;2022-09-01T10:12:30;99876.94;;;21.51;36.96
22018;BME280;11173;51.050;7.108;2022-09-01T10:17:36;99872.31;;;21.53;36.19
22018;BME280;11173;51.050;7.108;2022-09-01T10:22:38;99868.81;;;21.58;35.13
22018;BME280;11173;51.050;7.108;2022-09-01T10:27:41;99877.31;;;21.58;34.56
22018;BME280;11173;51.050;7.108;2022-09-01T10:32:48;99876.59;;;21.63;35.81
22018;BME280;11173;51.050;7.108;2022-09-01T10:37:50;99860.94;;;21.68;36.53
22018;BME280;11173;51.050;7.108;2022-09-01T10:42:54;99857.22;;;21.77;37.18
22018;BME280;11173;51.050;7.108;2022-09-01T10:47:55;99859.41;;;21.88;37.99
22018;BME280;11173;51.050;7.108;2022-09-01T10:52:58;99860.34;;;21.99;38.71
22018;BME280;11173;51.050;7.108;2022-09-01T10:58:16;99863.06;;;22.09;38.41
22018;BME280;11173;51.050;7.108;2022-09-01T11:08:42;99864.56;;;22.24;37.86
22018;BME280;11173;51.050;7.108;2022-09-01T11:13:46;99847.84;;;22.27;38.01
22018;BME280;11173;51.050;7.108;2022-09-01T11:18:48;99842.19;;;22.12;35.47
22018;BME280;11173;51.050;7.108;2022-09-01T11:23:50;99853.31;;;22.15;35.88
22018;BME280;11173;51.050;7.108;2022-09-01T11:28:50;99837.66;;;22.20;36.99
22018;BME280;11173;51.050;7.108;2022-09-01T11:39:19;99837.13;;;22.62;34.67
22018;BME280;11173;51.050;7.108;2022-09-01T11:49:38;99846.41;;;23.15;35.40
22018;BME280;11173;51.050;7.108;2022-09-01T11:54:41;99841.38;;;23.31;34.55
22018;BME280;11173;51.050;7.108;2022-09-01T11:59:42;99834.44;;;23.37;33.45
22018;BME280;11173;51.050;7.108;2022-09-01T12:04:43;99826.97;;;23.40;32.78
22018;BME280;11173;51.050;7.108;2022-09-01T12:09:45;99828.88;;;23.54;35.86
22018;BME280;11173;51.050;7.108;2022-09-01T12:14:57;99809.53;;;23.58;35.62
22018;BME280;11173;51.050;7.108;2022-09-01T12:20:22;99811.94;;;23.71;36.11
22018;BME280;11173;51.050;7.108;2022-09-01T12:25:32;99797.53;;;23.92;36.35
22018;BME280;11173;51.050;7.108;2022-09-01T12:30:33;99810.03;;;24.11;34.20
22018;BME280;11173;51.050;7.108;2022-09-01T12:35:34;99799.44;;;24.12;33.13
22018;BME280;11173;51.050;7.108;2022-09-01T12:40:35;99807.72;;;24.04;34.58
22018;BME280;11173;51.050;7.108;2022-09-01T12:45:46;99801.47;;;23.94;33.99
22018;BME280;11173;51.050;7.108;2022-09-01T12:50:47;99794.69;;;23.86;34.75
22018;BME280;11173;51.050;7.108;2022-09-01T12:55:56;99799.09;;;23.87;33.81
22018;BME280;11173;51.050;7.108;2022-09-01T13:01:06;99790.59;;;23.98;32.94
22018;BME280;11173;51.050;7.108;2022-09-01T13:06:14;99790.38;;;24.08;33.91
22018;BME280;11173;51.050;7.108;2022-09-01T13:11:17;99783.13;;;24.07;34.17
22018;BME280;11173;51.050;7.108;2022-09-01T13:16:17;99779.75;;;24.02;34.47
22018;BME280;11173;51.050;7.108;2022-09-01T13:21:18;99765.78;;;23.99;32.96
22018;BME280;11173;51.050;7.108;2022-09-01T13:26:18;99758.78;;;24.00;31.39
22018;BME280;11173;51.050;7.108;2022-09-01T13:31:19;99753.38;;;24.08;30.98
22018;BME280;11173;51.050;7.108;2022-09-01T13:36:19;99752.38;;;24.16;30.73
22018;BME280;11173;51.050;7.108;2022-09-01T13:41:19;99746.69;;;24.16;30.71
22018;BME280;11173;51.050;7.108;2022-09-01T13:46:20;99754.97;;;24.20;30.49
22018;BME280;11173;51.050;7.108;2022-09-01T13:51:25;99749.03;;;24.24;32.35
22018;BME280;11173;51.050;7.108;2022-09-01T13:56:26;99732.94;;;24.09;32.42
22018;BME280;11173;51.050;7.108;2022-09-01T14:01:26;99744.03;;;24.01;32.82
22018;BME280;11173;51.050;7.108;2022-09-01T14:06:28;99739.34;;;23.87;32.61
22018;BME280;11173;51.050;7.108;2022-09-01T14:11:28;99729.00;;;23.84;31.32
22018;BME280;11173;51.050;7.108;2022-09-01T14:16:31;99730.31;;;23.94;30.93
22018;BME280;11173;51.050;7.108;2022-09-01T14:21:32;99734.25;;;24.08;30.85
22018;BME280;11173;51.050;7.108;2022-09-01T14:26:33;99724.75;;;24.28;30.65
22018;BME280;11173;51.050;7.108;2022-09-01T14:31:34;99720.88;;;24.42;30.89
22018;BME280;11173;51.050;7.108;2022-09-01T14:36:37;99729.44;;;24.48;30.74
22018;BME280;11173;51.050;7.108;2022-09-01T14:41:37;99714.41;;;24.53;30.01
22018;BME280;11173;51.050;7.108;2022-09-01T14:46:38;99713.63;;;24.47;28.70
22018;BME280;11173;51.050;7.108;2022-09-01T14:51:39;99710.28;;;24.49;29.39
22018;BME280;11173;51.050;7.108;2022-09-01T14:56:39;99700.69;;;24.40;29.15
22018;BME280;11173;51.050;7.108;2022-09-01T15:01:40;99704.81;;;24.39;30.70
22018;BME280;11173;51.050;7.108;2022-09-01T15:06:42;99705.34;;;24.32;30.91
22018;BME280;11173;51.050;7.108;2022-09-01T15:11:42;99700.59;;;24.18;31.92
22018;BME280;11173;51.050;7.108;2022-09-01T15:16:42;99697.50;;;24.21;32.34
22018;BME280;11173;51.050;7.108;2022-09-01T15:21:45;99701.19;;;24.33;32.91
22018;BME280;11173;51.050;7.108;2022-09-01T15:26:46;99679.72;;;24.44;32.47
22018;BME280;11173;51.050;7.108;2022-09-01T15:31:46;99676.34;;;24.51;32.33
22018;BME280;11173;51.050;7.108;2022-09-01T15:36:46;99679.97;;;24.57;32.38
22018;BME280;11173;51.050;7.108;2022-09-01T15:41:47;99685.66;;;24.46;31.62
22018;BME280;11173;51.050;7.108;2022-09-01T15:46:47;99686.16;;;24.27;32.08
22018;BME280;11173;51.050;7.108;2022-09-01T15:51:47;99675.50;;;24.05;32.67
22018;BME280;11173;51.050;7.108;2022-09-01T15:56:48;99681.69;;;23.87;32.78
22018;BME280;11173;51.050;7.108;2022-09-01T16:01:48;99682.91;;;23.69;32.95
22018;BME280;11173;51.050;7.108;2022-09-01T16:06:51;99678.16;;;23.49;32.62
22018;BME280;11173;51.050;7.108;2022-09-01T16:11:52;99671.06;;;23.27;32.86
22018;BME280;11173;51.050;7.108;2022-09-01T16:17:21;99666.88;;;23.11;31.24
22018;BME280;11173;51.050;7.108;2022-09-01T16:22:41;99659.34;;;23.02;31.86
22018;BME280;11173;51.050;7.108;2022-09-01T16:27:47;99658.25;;;23.00;31.34
22018;BME280;11173;51.050;7.108;2022-09-01T16:32:48;99659.28;;;22.97;31.21
22018;BME280;11173;51.050;7.108;2022-09-01T16:38:16;99653.13;;;23.04;30.60
22018;BME280;11173;51.050;7.108;2022-09-01T16:43:32;99657.00;;;23.01;28.39
22018;BME280;11173;51.050;7.108;2022-09-01T16:49:14;99650.78;;;22.97;30.41
22018;BME280;11173;51.050;7.108;2022-09-01T16:59:59;99638.41;;;22.68;30.89
22018;BME280;11173;51.050;7.108;2022-09-01T17:10:19;99644.63;;;22.35;31.07
22018;BME280;11173;51.050;7.108;2022-09-01T17:15:30;99645.19;;;22.13;31.31
22018;BME280;11173;51.050;7.108;2022-09-01T17:20:39;99644.72;;;21.94;31.99
22018;BME280;11173;51.050;7.108;2022-09-01T17:25:47;99643.47;;;21.74;31.71
22018;BME280;11173;51.050;7.108;2022-09-01T17:41:37;99639.19;;;21.17;32.13
22018;BME280;11173;51.050;7.108;2022-09-01T17:47:08;99635.13;;;21.03;32.04
22018;BME280;11173;51.050;7.108;2022-09-01T17:57:52;99632.47;;;20.79;32.45
22018;BME280;11173;51.050;7.108;2022-09-01T18:03:26;99628.78;;;20.58;32.21
22018;BME280;11173;51.050;7.108;2022-09-01T18:08:40;99630.78;;;20.37;32.87
22018;BME280;11173;51.050;7.108;2022-09-01T18:19:13;99636.91;;;19.91;33.57
22018;BME280;11173;51.050;7.108;2022-09-01T18:24:25;99638.03;;;19.70;33.56
22018;BME280;11173;51.050;7.108;2022-09-01T18:29:27;99645.88;;;19.51;33.92
22018;BME280;11173;51.050;7.108;2022-09-01T18:34:42;99654.59;;;19.38;34.17
22018;BME280;11173;51.050;7.108;2022-09-01T18:39:59;99657.50;;;19.28;34.00
22018;BME280;11173;51.050;7.108;2022-09-01T18:50:26;99657.44;;;19.04;34.96
22018;BME280;11173;51.050;7.108;2022-09-01T18:55:54;99669.00;;;18.92;35.12
22018;BME280;11173;51.050;7.108;2022-09-01T19:01:05;99663.06;;;18.80;35.61
22018;BME280;11173;51.050;7.108;2022-09-01T19:06:30;99667.50;;;18.72;35.32
22018;BME280;11173;51.050;7.108;2022-09-01T19:22:00;99669.94;;;18.46;35.80
22018;BME280;11173;51.050;7.108;2022-09-01T19:27:14;99680.75;;;18.38;36.59
22018;BME280;11173;51.050;7.108;2022-09-01T19:32:16;99677.34;;;18.25;36.32
22018;BME280;11173;51.050;7.108;2022-09-01T19:37:19;99678.59;;;18.15;36.44
22018;BME280;11173;51.050;7.108;2022-09-01T20:02:56;99687.09;;;18.05;36.98
22018;BME280;11173;51.050;7.108;2022-09-01T20:18:30;99690.53;;;18.00;37.27
22018;BME280;11173;51.050;7.108;2022-09-01T20:23:47;99696.19;;;18.00;37.34
22018;BME280;11173;51.050;7.108;2022-09-01T20:29:05;99703.38;;;18.01;36.95
22018;BME280;11173;51.050;7.108;2022-09-01T20:34:12;99696.97;;;18.01;36.99
22018;BME280;11173;51.050;7.108;2022-09-01T20:39:19;99694.31;;;17.97;36.98
22018;BME280;11173;51.050;7.108;2022-09-01T20:44:46;99691.66;;;17.94;36.81
22018;BME280;11173;51.050;7.108;2022-09-01T20:49:49;99678.81;;;17.83;36.75
22018;BME280;11173;51.050;7.108;2022-09-01T21:00:14;99699.19;;;17.69;37.19
22018;BME280;11173;51.050;7.108;2022-09-01T21:16:22;99693.31;;;17.36;37.83
22018;BME280;11173;51.050;7.108;2022-09-01T21:26:56;99684.03;;;17.17;37.74
22018;BME280;11173;51.050;7.108;2022-09-01T21:31:58;99686.22;;;17.13;38.03
22018;BME280;11173;51.050;7.108;2022-09-01T21:36:58;99686.34;;;17.00;38.35
22018;BME280;11173;51.050;7.108;2022-09-01T21:41:59;99686.34;;;17.00;38.17
22018;BME280;11173;51.050;7.108;2022-09-01T21:47:00;99682.91;;;16.96;38.64
22018;BME280;11173;51.050;7.108;2022-09-01T21:52:00;99678.34;;;16.89;38.80
22018;BME280;11173;51.050;7.108;2022-09-01T21:57:01;99673.31;;;16.84;38.84
22018;BME280;11173;51.050;7.108;2022-09-01T22:02:02;99679.13;;;16.89;38.64
22018;BME280;11173;51.050;7.108;2022-09-01T22:07:06;99678.00;;;16.78;39.14
22018;BME280;11173;51.050;7.108;2022-09-01T22:12:08;99669.41;;;16.81;38.87
22018;BME280;11173;51.050;7.108;2022-09-01T22:17:08;99670.31;;;16.78;38.54
22018;BME280;11173;51.050;7.108;2022-09-01T22:22:09;99665.97;;;16.77;38.82
22018;BME280;11173;51.050;7.108;2022-09-01T22:27:09;99662.97;;;16.72;38.83
22018;BME280;11173;51.050;7.108;2022-09-01T22:32:10;99660.16;;;16.72;38.95
22018;BME280;11173;51.050;7.108;2022-09-01T22:37:10;99650.94;;;16.71;38.94
22018;BME280;11173;51.050;7.108;2022-09-01T22:42:11;99669.38;;;16.72;39.15
22018;BME280;11173;51.050;7.108;2022-09-01T22:47:11;99657.34;;;16.72;38.61
22018;BME280;11173;51.050;7.108;2022-09-01T22:52:11;99648.81;;;16.62;39.09
22018;BME280;11173;51.050;7.108;2022-09-01T22:57:12;99654.91;;;16.61;39.42
22018;BME280;11173;51.050;7.108;2022-09-01T23:02:12;99650.34;;;16.54;39.07
22018;BME280;11173;51.050;7.108;2022-09-01T23:07:13;99651.31;;;16.60;39.07
22018;BME280;11173;51.050;7.108;2022-09-01T23:12:13;99645.66;;;16.51;39.58
22018;BME280;11173;51.050;7.108;2022-09-01T23:17:14;99644.41;;;16.52;39.58
22018;BME280;11173;51.050;7.108;2022-09-01T23:22:14;99643.44;;;16.46;39.82
22018;BME280;11173;51.050;7.108;2022-09-01T23:27:15;99640.31;;;16.44;39.41
22018;BME280;11173;51.050;7.108;2022-09-01T23:32:16;99641.28;;;16.50;39.47
22018;BME280;11173;51.050;7.108;2022-09-01T23:37:16;99634.63;;;16.35;40.16
22018;BME280;11173;51.050;7.108;2022-09-01T23:42:17;99647.97;;;16.43;40.03
22018;BME280;11173;51.050;7.108;2022-09-01T23:47:18;99633.28;;;16.39;40.07
22018;BME280;11173;51.050;7.108;2022-09-01T23:52:18;99635.75;;;16.37;40.17
22018;BME280;11173;51.050;7.108;2022-09-01T23:57:19;99636.09;;;16.39;40.05
